Nearby METAR Reports

 

KSLE - Salem, Oregon, USA
Distance from station: NE 1mi, 2km
Updated: Sat, 02-Mar-2024 8:56am PST
Mostly cloudy
Mostly cloudy
 Wind from S
Wind: S 12 mph , 19 km/h
Temperature: 36°F , 2°C
Wind Chill: 28°F , -2°C
Dew Point: 34°F , 1°C
Humidity: 93%
Barometer: 29.51 inHg , 999.3 hPa
Clouds: Mostly cloudy
Visibility: 7 miles , 11 km
Cloud details: Mostly cloudy 800 ft
Mostly cloudy 1300 ft
Mostly cloudy 4500 ft
2024/03/02 16:56 KSLE 021656Z 18010KT 7SM BKN008 BKN013 BKN045 02/01 A2951 RMK AO2 SNE37 SLP994 P0002 T00220006 $
KMMV - Mcminnville, Oregon, USA
Distance from station: NNW 22mi, 36km
Updated: Sat, 02-Mar-2024 9:26am PST
Partly cloudy
Partly cloudy
 Wind from SE
Wind: SE 6 mph , 9 km/h
Temperature: 37°F , 3°C
Wind Chill: 32°F , 0°C
Dew Point: 36°F , 2°C
Humidity: 93%
Barometer: 29.51 inHg , 999.3 hPa
Clouds: Partly cloudy
Visibility: 10 miles , 16 km
Cloud details: Partly cloudy 1900 ft
Partly cloudy 5000 ft
2024/03/02 17:26 KMMV 021726Z AUTO 13005KT 10SM SCT019 SCT050 03/02 A2951 RMK AO2 T00280022 $
 
KUAO - Aurora, Oregon, USA
Distance from station: NNE 28mi, 45km
Updated: Sat, 02-Mar-2024 8:53am PST
Light snow, Overcast
Light snow, Overcast
 Wind from SSW
Wind: SSW 9 mph , 15 km/h
Temperature: 36°F , 2°C
Wind Chill: 29°F , -2°C
Dew Point: 34°F , 1°C
Humidity: 93%
Barometer: 29.52 inHg , 999.7 hPa
Summary: Light Snow
Clouds: Overcast
Visibility: 9 miles , 14 km
Cloud details: Overcast 600 ft
2024/03/02 16:53 KUAO 021653Z 20008KT 9SM -SN OVC006 02/01 A2952 RMK AO2 SNE1556B46 SLP997 P0000 T00170011
KCVO - Corvallis Muni A, Oregon, USA
Distance from station: SSW 29mi, 47km
Updated: Sat, 02-Mar-2024 9:25am PST
Light rain, Overcast
Light rain, Overcast
 Wind from S
Wind: S 15 mph , 24 km/h
Temperature: 36°F , 2°C
Wind Chill: 27°F , -3°C
Dew Point: 34°F , 1°C
Humidity: 93%
Barometer: 29.56 inHg , 1001 hPa
Summary: Light rain
Clouds: Overcast
Visibility: 10 miles , 16 km
Cloud details: Partly cloudy 1300 ft
Mostly cloudy 1800 ft
Overcast 11000 ft
2024/03/02 17:25 KCVO 021725Z AUTO 17013KT 10SM -RA SCT013 BKN018 OVC110 02/01 A2956 RMK AO2 RAB09 P0001 FZRANO
 
KHIO - Hillsboro/Portld, Oregon, USA
Distance from station: N 46mi, 74km
Updated: Sat, 02-Mar-2024 8:53am PST
Light rain, Overcast
Light rain, Overcast
 Wind from SSW
Wind: SSW 6 mph , 9 km/h
Temperature: 36°F , 2°C
Wind Chill: 31°F , -1°C
Dew Point: 34°F , 1°C
Humidity: 93%
Barometer: 29.49 inHg , 998.6 hPa
Summary: Light rain
Clouds: Overcast
Visibility: 10 miles , 16 km
Cloud details: Mostly cloudy 900 ft
Mostly cloudy 3300 ft
Overcast 10000 ft
2024/03/02 16:53 KHIO 021653Z 20005KT 10SM -RA BKN009 BKN033 OVC100 02/01 A2949 RMK AO2 UPB02E14B43E47RAB47 SLP989 P0000 T00220011